»·PEaware :: N2BD KSMO-KSAN

N2BD :: KSMO-KSAN

FLIGHT INFORMATION

Flight Status: Arrived
Operator: Privately registered:
United States
More flights under this callsign
Pilot: Anonymous 26385 (26385)
Aircraft: Unknown
(DA62)
More flights by this aircraft type
Origin: KSMO Santa Monica Mun
United States
Destination: KSAN San Diego Intl-Lindbergh
United States
More flights between these airports :: More routes between these airports
Route: SMO SMO125R V64 V363 DANAH V23 MZB
File this flight plan on PilotEdge
Remarks: SMOP22
Altitude:
(Current/Filed)
5,000ft
Speed:
(Current/Filed)
140kts
Departed: 24-Dec-19 01:49 PM
Arrived: 24-Dec-19 03:02 PM
Distance/Time
Traveled:
100nm/1:12
Distance/Time
To Go:
Arrived

Flight Plot

Page will automatically refresh every two minutes.


Map Options




Map Legend


Flown Route
Filed Route
Departure Airport
Arrival Airport
Navaid (VOR, NDB)
Fix

Horizontal Profiles

Position Reports

Time Latitude Longitude Heading Altitude Ground
Speed
24-Dec-19 13:25 34.013264 -118.451603 319 131ft 0kts
24-Dec-19 13:26 34.013264 -118.451603 319 131ft 0kts
24-Dec-19 13:27 34.013264 -118.451603 319 131ft 0kts
24-Dec-19 13:28 34.013264 -118.451603 319 131ft 0kts
24-Dec-19 13:29 34.013264 -118.451603 319 131ft 0kts
24-Dec-19 13:30 34.013264 -118.451603 319 131ft 0kts
24-Dec-19 13:31 34.013264 -118.451603 319 131ft 0kts
24-Dec-19 13:32 34.013264 -118.451603 319 131ft 0kts
24-Dec-19 13:33 34.013264 -118.451603 319 131ft 0kts
24-Dec-19 13:34 34.013264 -118.451603 319 131ft 0kts
24-Dec-19 13:35 34.013264 -118.451603 319 131ft 0kts
24-Dec-19 13:36 34.013264 -118.451603 319 131ft 0kts
24-Dec-19 13:37 34.013264 -118.451603 319 131ft 0kts
24-Dec-19 13:38 34.013264 -118.451603 319 131ft 0kts
24-Dec-19 13:39 34.013264 -118.451603 319 131ft 0kts
24-Dec-19 13:40 34.013264 -118.451603 319 131ft 0kts
24-Dec-19 13:41 34.013264 -118.451603 319 131ft 0kts
24-Dec-19 13:42 34.013144 -118.452629 228 129ft 15kts
24-Dec-19 13:43 34.014844 -118.451312 46 135ft 1kts
24-Dec-19 13:44 34.016866 -118.448912 51 148ft 27kts
24-Dec-19 13:45 34.018901 -118.446899 318 159ft 0kts
24-Dec-19 13:46 34.018901 -118.446899 318 159ft 0kts
24-Dec-19 13:47 34.018901 -118.446899 318 159ft 0kts
24-Dec-19 13:48 34.011283 -118.456415 219 355ft 87kts
24-Dec-19 13:49 33.988946 -118.474911 220 1574ft 93kts
24-Dec-19 13:50 33.980213 -118.503558 260 2794ft 95kts
24-Dec-19 13:51 33.975093 -118.544793 261 3009ft 151kts
24-Dec-19 13:52 33.968375 -118.597426 260 2999ft 162kts
24-Dec-19 13:53 33.961393 -118.650872 260 3006ft 163kts
24-Dec-19 13:54 33.963268 -118.702030 326 2988ft 163kts
24-Dec-19 13:55 33.985411 -118.672717 88 3898ft 145kts
24-Dec-19 13:56 33.989093 -118.619174 80 4006ft 173kts
24-Dec-19 13:57 33.996445 -118.561501 79 4001ft 170kts
24-Dec-19 13:58 34.003233 -118.511208 79 3993ft 166kts
24-Dec-19 13:59 34.006952 -118.457801 121 3984ft 163kts
24-Dec-19 14:00 33.966266 -118.434637 160 4001ft 159kts
24-Dec-19 14:01 33.924483 -118.416128 160 4007ft 160kts
24-Dec-19 14:02 33.883580 -118.397998 160 4008ft 160kts
24-Dec-19 14:03 33.841909 -118.379536 160 4002ft 160kts
24-Dec-19 14:04 33.800031 -118.360952 160 3999ft 160kts
24-Dec-19 14:05 33.760806 -118.343468 160 4315ft 146kts
24-Dec-19 14:06 33.723667 -118.326544 160 4797ft 141kts
24-Dec-19 14:07 33.685769 -118.309071 160 4993ft 154kts
24-Dec-19 14:08 33.658450 -118.271282 110 4992ft 165kts
24-Dec-19 14:09 33.642692 -118.219065 110 4989ft 166kts
24-Dec-19 14:10 33.626657 -118.166755 110 4989ft 166kts
24-Dec-19 14:11 33.610595 -118.114610 110 4989ft 166kts
24-Dec-19 14:12 33.594447 -118.062311 110 4990ft 166kts
24-Dec-19 14:13 33.578331 -118.010164 110 4965ft 168kts
24-Dec-19 14:14 33.562156 -117.957938 110 4956ft 166kts
24-Dec-19 14:15 33.546128 -117.906229 110 4957ft 166kts
24-Dec-19 14:16 33.529986 -117.854315 110 4962ft 166kts
24-Dec-19 14:17 33.513776 -117.802258 110 4963ft 167kts
24-Dec-19 14:18 33.497781 -117.750998 110 4964ft 167kts
24-Dec-19 14:19 33.493284 -117.701020 33 4981ft 164kts
24-Dec-19 14:20 33.531845 -117.709397 25 4950ft 165kts
24-Dec-19 14:21 33.521964 -117.672159 191 4950ft 157kts
24-Dec-19 14:22 33.478672 -117.667749 169 4968ft 161kts
24-Dec-19 14:23 33.438151 -117.646870 137 4981ft 165kts
24-Dec-19 14:24 33.405114 -117.608458 136 4968ft 166kts
24-Dec-19 14:26 33.372206 -117.570116 137 4973ft 166kts
24-Dec-19 14:27 33.338713 -117.531185 136 4978ft 167kts
24-Dec-19 14:28 33.305136 -117.492183 136 4970ft 167kts
24-Dec-19 14:29 33.271580 -117.453122 136 4966ft 168kts
24-Dec-19 14:30 33.237611 -117.417624 157 4963ft 165kts
24-Dec-19 14:31 33.194842 -117.398170 161 4965ft 164kts
24-Dec-19 14:32 33.151719 -117.380035 161 4964ft 165kts
24-Dec-19 14:33 33.108374 -117.361809 161 4965ft 165kts
24-Dec-19 14:34 33.066105 -117.344050 162 4962ft 165kts
24-Dec-19 14:35 33.022790 -117.325872 162 4962ft 164kts
24-Dec-19 14:36 32.979524 -117.307724 162 4964ft 165kts
24-Dec-19 14:37 32.936126 -117.289558 162 4965ft 166kts
24-Dec-19 14:38 32.893224 -117.271607 162 4967ft 166kts
24-Dec-19 14:39 32.849508 -117.253376 162 4959ft 167kts
24-Dec-19 14:40 32.808286 -117.236162 162 4972ft 167kts
24-Dec-19 14:41 32.767054 -117.213978 150 4976ft 169kts
24-Dec-19 14:42 32.734406 -117.176777 93 4990ft 169kts
24-Dec-19 14:43 32.732185 -117.124831 91 4974ft 172kts
24-Dec-19 14:43 32.730471 -117.080043 91 4974ft 171kts
24-Dec-19 14:45 32.728260 -117.020752 91 4976ft 171kts
24-Dec-19 14:46 32.726751 -116.978576 91 4975ft 171kts
24-Dec-19 14:46 32.725487 -116.942227 91 4974ft 171kts
24-Dec-19 14:47 32.723857 -116.895702 91 4972ft 171kts
24-Dec-19 14:49 32.721992 -116.841111 91 4975ft 171kts
24-Dec-19 14:49 32.720464 -116.794980 93 4961ft 172kts
24-Dec-19 14:50 32.690203 -116.789298 251 4969ft 155kts
24-Dec-19 14:52 32.681823 -116.844274 258 4412ft 164kts
24-Dec-19 14:52 32.667083 -116.894292 251 3768ft 145kts
24-Dec-19 14:53 32.674375 -116.943255 285 3574ft 136kts
24-Dec-19 14:54 32.684291 -116.989374 283 3440ft 133kts
24-Dec-19 14:55 32.694162 -117.028676 285 2889ft 137kts
24-Dec-19 14:56 32.704010 -117.068340 284 2478ft 133kts
24-Dec-19 14:57 32.713519 -117.107570 285 1692ft 97kts
24-Dec-19 14:58 32.719187 -117.133140 292 1069ft 80kts
24-Dec-19 14:59 32.725884 -117.158249 288 612ft 75kts
24-Dec-19 15:00 32.731620 -117.181695 288 20ft 63kts
24-Dec-19 15:01 32.734690 -117.186921 18 17ft 4kts

Navigation Log

Ident Type
Flight plan parsing failed, navigation log unavailable